Accueil
METAR-TAF:

METAR-TAF

Aéroports :

Fritzlar, Allemagne

latitude: 51-07N, longitude: 009-17E, altitude: 172 m

Observation

Le bulletin a été fait il y a 51 minutes, à 17:20 UTC
Vent 4 kt de sud-ouest
Température 22°C
Humidité 57%
Pression 1019 hPa
Visibilité 10 km ou plus
Quelques nuages à une hauteur de 4000 ft
Nuages fragmentés à une hauteur de 5000 ft

METAR: ETHF 151720Z 23004KT 9999 FEW040 BKN050 22/13 Q1019 BLU

Heure: 20:11 (18:11 UTC)

Prévision

Le bulletin a été fait il y a 3 heures et 31 minutes, à 14:40 UTC
Prévision valable du 15 à 14 UTC au 15 à 23 UTC
Vent 7 kt de sud-ouest
Visibilité: 1500 m
Nuages épars à une hauteur de 4000 ft
Nuages fragmentés à une hauteur de 6000 ft

TAF: ETHF 151440Z 1514/1523 23007KT 9999 NSW SCT040 BKN060 CANCEL 1500

Observations et prévisions météorologiques de plus de 4000 aéroports (messages METAR et TAF).

Les stations disponibles sont représentées par des disques jaunes et rouges sur la carte.

Passer la souris dessus pour voir le nom de la station.

Cliquer dessus pour voir les observations et prévisions météorologiques.

Pour changer de carte: cliquez sur les boutons verts avec une croix noire pour zoomer, sur le bouton vert avec un tiret pour effectuer un zoom arrière, ou sur les flèches vertes pour les cartes adjacentes.


METAR-TAF: